createdAt,value
2022-10-22T00:00:16.400Z,13.67
2022-10-22T00:01:16.371Z,13.67
2022-10-22T00:02:16.365Z,13.78
2022-10-22T00:03:16.376Z,13.77
2022-10-22T00:04:16.333Z,13.78
2022-10-22T00:05:16.316Z,13.86
2022-10-22T00:06:16.314Z,13.81
2022-10-22T00:07:16.303Z,13.81
2022-10-22T00:08:16.284Z,13.89
2022-10-22T00:09:16.411Z,13.86
2022-10-22T00:10:16.261Z,13.90
2022-10-22T00:11:16.252Z,13.90
2022-10-22T00:12:16.238Z,13.95
2022-10-22T00:13:16.232Z,13.95
2022-10-22T00:14:16.221Z,13.99
2022-10-22T00:15:16.238Z,14.08
2022-10-22T00:16:16.247Z,14.11
2022-10-22T00:17:16.182Z,14.07
2022-10-22T00:18:16.169Z,14.11
2022-10-22T00:19:16.161Z,14.23
2022-10-22T00:20:16.154Z,14.22
2022-10-22T00:21:16.152Z,14.18
2022-10-22T00:22:16.142Z,14.25
2022-10-22T00:23:16.639Z,14.35
2022-10-22T00:24:16.103Z,14.32
2022-10-22T00:25:16.115Z,14.36
2022-10-22T00:26:16.080Z,14.40
2022-10-22T00:27:16.125Z,14.37
2022-10-22T00:28:16.060Z,14.41
2022-10-22T00:29:16.044Z,14.44
2022-10-22T00:30:16.036Z,14.44
2022-10-22T00:31:16.030Z,14.53
2022-10-22T00:32:16.034Z,14.45
2022-10-22T00:33:16.035Z,14.47
2022-10-22T00:34:15.996Z,14.45
2022-10-22T00:35:15.982Z,14.50
2022-10-22T00:36:15.965Z,14.53
2022-10-22T00:37:15.959Z,14.58
2022-10-22T00:38:15.944Z,14.51
2022-10-22T00:39:15.974Z,14.59
2022-10-22T00:40:15.919Z,14.54
2022-10-22T00:41:15.919Z,14.55
2022-10-22T00:42:15.905Z,14.54
2022-10-22T00:43:15.999Z,14.59
2022-10-22T00:44:15.875Z,14.59
2022-10-22T00:45:15.908Z,14.59
2022-10-22T00:46:15.861Z,14.54
2022-10-22T00:47:15.930Z,14.59
2022-10-22T00:48:15.851Z,14.51
2022-10-22T00:49:15.825Z,14.53
2022-10-22T00:50:15.805Z,14.54
2022-10-22T00:51:15.832Z,14.59
2022-10-22T00:52:15.789Z,14.58
2022-10-22T00:53:15.772Z,14.58
2022-10-22T00:54:15.779Z,14.58
2022-10-22T00:55:15.752Z,14.54
2022-10-22T00:56:15.743Z,14.55
2022-10-22T00:57:15.756Z,14.58
2022-10-22T00:58:15.712Z,14.58
2022-10-22T00:59:15.710Z,14.51
2022-10-22T01:00:15.718Z,14.53
2022-10-22T01:01:15.741Z,14.54
2022-10-22T01:02:15.669Z,14.47
2022-10-22T01:03:15.692Z,14.50
2022-10-22T01:04:15.669Z,14.41
2022-10-22T01:05:15.647Z,14.50
2022-10-22T01:06:15.623Z,14.50
2022-10-22T01:07:15.611Z,14.51
2022-10-22T01:08:15.633Z,14.45
2022-10-22T01:09:15.606Z,14.50
2022-10-22T01:10:15.581Z,14.41
2022-10-22T01:11:15.565Z,14.44
2022-10-22T01:12:15.556Z,14.48
2022-10-22T01:13:15.547Z,14.47
2022-10-22T01:14:15.532Z,14.50
2022-10-22T01:15:15.542Z,14.45
2022-10-22T01:16:15.510Z,14.45
2022-10-22T01:17:15.592Z,14.40
2022-10-22T01:18:15.488Z,14.41
2022-10-22T01:19:15.479Z,14.45
2022-10-22T01:20:15.489Z,14.47
2022-10-22T01:21:15.510Z,14.45
2022-10-22T01:22:15.442Z,14.51
2022-10-22T01:23:15.430Z,14.53
2022-10-22T01:24:15.417Z,14.51
2022-10-22T01:25:15.405Z,14.62
2022-10-22T01:26:15.487Z,14.58
2022-10-22T01:27:15.419Z,14.54
2022-10-22T01:28:15.375Z,14.54
2022-10-22T01:29:15.362Z,14.51
2022-10-22T01:30:15.355Z,14.55
2022-10-22T01:31:15.335Z,14.60
2022-10-22T01:32:15.329Z,14.66
2022-10-22T01:33:15.370Z,14.66
2022-10-22T01:34:15.308Z,14.59
2022-10-22T01:35:15.300Z,14.58
2022-10-22T01:36:15.329Z,14.62
2022-10-22T01:37:15.266Z,14.69
2022-10-22T01:38:15.269Z,14.66
2022-10-22T01:39:15.312Z,14.66
2022-10-22T01:40:15.241Z,14.55
2022-10-22T01:41:15.225Z,14.62
2022-10-22T01:42:15.211Z,14.65
2022-10-22T01:43:15.206Z,14.65
2022-10-22T01:44:15.188Z,14.63
2022-10-22T01:45:15.197Z,14.59
2022-10-22T01:46:15.168Z,14.58
2022-10-22T01:47:15.175Z,14.66
2022-10-22T01:48:15.165Z,14.68
2022-10-22T01:49:15.167Z,14.62
2022-10-22T01:50:15.159Z,14.59
2022-10-22T01:51:15.120Z,14.62
2022-10-22T01:52:15.144Z,14.68
2022-10-22T01:53:15.111Z,14.62
2022-10-22T01:54:15.076Z,14.63
2022-10-22T01:55:15.071Z,14.62
2022-10-22T01:56:15.058Z,14.62
2022-10-22T01:57:15.079Z,14.63
2022-10-22T01:58:15.107Z,14.66
2022-10-22T01:59:15.030Z,14.60
2022-10-22T02:00:15.032Z,14.62
2022-10-22T02:01:15.036Z,14.66
2022-10-22T02:02:14.990Z,14.62
2022-10-22T02:03:17.488Z,14.68
2022-10-22T02:04:15.985Z,14.68
2022-10-22T02:05:14.957Z,14.59
2022-10-22T02:06:14.946Z,14.63
2022-10-22T02:07:14.985Z,14.59
2022-10-22T02:08:14.941Z,14.55
2022-10-22T02:09:14.981Z,14.62
2022-10-22T02:10:14.897Z,14.60
2022-10-22T02:11:14.921Z,14.62
2022-10-22T02:12:14.883Z,14.54
2022-10-22T02:13:14.888Z,14.55
2022-10-22T02:14:14.859Z,14.59
2022-10-22T02:15:14.852Z,14.50
2022-10-22T02:16:14.852Z,14.55
2022-10-22T02:17:14.886Z,14.60
2022-10-22T02:18:14.803Z,14.59
2022-10-22T02:19:14.829Z,14.62
2022-10-22T02:20:14.786Z,14.48
2022-10-22T02:21:14.811Z,14.51
2022-10-22T02:22:14.814Z,14.44
2022-10-22T02:23:14.755Z,14.50
2022-10-22T02:24:14.778Z,14.45
2022-10-22T02:25:14.759Z,14.43
2022-10-22T02:26:14.718Z,14.43
2022-10-22T02:27:14.756Z,14.43
2022-10-22T02:28:14.712Z,14.53
2022-10-22T02:29:14.685Z,14.48
2022-10-22T02:30:17.716Z,14.51
2022-10-22T02:31:14.666Z,14.41
2022-10-22T02:32:14.727Z,14.43
2022-10-22T02:33:14.662Z,14.43
2022-10-22T02:34:14.631Z,14.51
2022-10-22T02:35:14.627Z,14.48
2022-10-22T02:36:14.601Z,14.50
2022-10-22T02:37:14.592Z,14.47
2022-10-22T02:38:14.591Z,14.45
2022-10-22T02:39:14.621Z,14.58
2022-10-22T02:40:14.619Z,14.45
2022-10-22T02:41:14.565Z,14.47
2022-10-22T02:42:14.533Z,14.51
2022-10-22T02:43:14.574Z,14.53
2022-10-22T02:44:14.515Z,14.58
2022-10-22T02:45:14.519Z,14.48
2022-10-22T02:46:14.530Z,14.47
2022-10-22T02:47:14.481Z,14.54
2022-10-22T02:48:14.520Z,14.53
2022-10-22T02:49:14.495Z,14.51
2022-10-22T02:50:14.459Z,14.50
2022-10-22T02:51:14.506Z,14.45
2022-10-22T02:52:14.428Z,14.47
2022-10-22T02:53:14.409Z,14.54
2022-10-22T02:54:14.404Z,14.53
2022-10-22T02:55:14.396Z,14.53
2022-10-22T02:56:14.419Z,14.58
2022-10-22T02:57:14.495Z,14.51
2022-10-22T02:58:14.355Z,14.54
2022-10-22T02:59:14.368Z,14.51
2022-10-22T03:00:14.399Z,14.50
2022-10-22T03:01:16.160Z,14.59
2022-10-22T03:02:14.309Z,14.47
2022-10-22T03:03:14.317Z,14.51
2022-10-22T03:04:14.286Z,14.51
2022-10-22T03:05:14.305Z,14.51
2022-10-22T03:06:14.313Z,14.51
2022-10-22T03:07:14.251Z,14.50
2022-10-22T03:08:14.249Z,14.53
2022-10-22T03:09:14.311Z,14.50
2022-10-22T03:10:14.229Z,14.48
2022-10-22T03:11:14.214Z,14.48
2022-10-22T03:12:14.222Z,14.44
2022-10-22T03:13:14.194Z,14.45
2022-10-22T03:14:14.245Z,14.35
2022-10-22T03:15:14.207Z,14.37
2022-10-22T03:16:14.158Z,14.36
2022-10-22T03:17:14.144Z,14.43
2022-10-22T03:18:14.130Z,14.35
2022-10-22T03:19:14.195Z,14.33
2022-10-22T03:20:14.105Z,14.32
2022-10-22T03:21:14.111Z,14.33
2022-10-22T03:22:14.086Z,14.22
2022-10-22T03:23:14.075Z,14.23
2022-10-22T03:24:14.064Z,14.20
2022-10-22T03:25:14.051Z,14.22
2022-10-22T03:26:14.070Z,14.12
2022-10-22T03:27:14.048Z,14.12
2022-10-22T03:28:14.041Z,14.04
2022-10-22T03:29:14.008Z,14.03
2022-10-22T03:30:13.995Z,14.04
2022-10-22T03:31:13.986Z,13.99
2022-10-22T03:32:13.978Z,13.89
2022-10-22T03:33:13.992Z,13.92
2022-10-22T03:34:13.953Z,13.86
2022-10-22T03:35:13.933Z,13.89
2022-10-22T03:36:13.930Z,13.87
2022-10-22T03:37:13.931Z,13.87
2022-10-22T03:38:13.904Z,13.86
2022-10-22T03:39:13.929Z,13.83
2022-10-22T03:40:13.883Z,13.83
2022-10-22T03:41:13.873Z,13.95
2022-10-22T03:42:13.852Z,13.78
2022-10-22T03:43:13.849Z,13.78
2022-10-22T03:44:13.857Z,13.68
2022-10-22T03:45:13.845Z,13.68
2022-10-22T03:46:13.842Z,13.67
2022-10-22T03:47:13.797Z,13.62
2022-10-22T03:48:13.811Z,13.52
2022-10-22T03:49:13.775Z,13.42
2022-10-22T03:50:13.772Z,13.42
2022-10-22T03:51:13.827Z,13.38
2022-10-22T03:52:13.739Z,13.25
2022-10-22T03:53:13.737Z,13.16
2022-10-22T03:54:13.735Z,13.11
2022-10-22T03:55:13.712Z,13.05
2022-10-22T03:56:13.696Z,12.95
2022-10-22T03:57:13.715Z,12.87
2022-10-22T03:58:13.677Z,12.83
2022-10-22T03:59:13.657Z,12.86
2022-10-22T04:00:13.683Z,12.75
2022-10-22T04:01:13.707Z,12.68
2022-10-22T04:02:13.637Z,12.65
2022-10-22T04:03:13.636Z,12.60
2022-10-22T04:04:13.606Z,12.53
2022-10-22T04:06:13.580Z,12.40
2022-10-22T04:07:13.575Z,12.35
2022-10-22T04:08:13.565Z,12.25
2022-10-22T04:09:13.691Z,12.21
2022-10-22T04:10:13.537Z,12.15
2022-10-22T04:11:13.534Z,12.04
2022-10-22T04:12:13.519Z,12.09
2022-10-22T04:13:13.504Z,12.00
2022-10-22T04:14:13.493Z,11.99
2022-10-22T04:15:13.492Z,11.90
2022-10-22T04:16:13.498Z,11.91
2022-10-22T04:17:13.459Z,11.87
2022-10-22T04:18:13.466Z,11.78
2022-10-22T04:19:13.435Z,11.70
2022-10-22T04:20:13.418Z,11.73
2022-10-22T04:21:13.454Z,11.72
2022-10-22T04:22:13.401Z,11.65
2022-10-22T04:23:13.490Z,11.55
2022-10-22T04:24:13.382Z,11.54
2022-10-22T04:25:13.401Z,11.55
2022-10-22T04:26:13.358Z,11.54
2022-10-22T04:27:13.357Z,11.47
2022-10-22T04:28:13.328Z,11.50
2022-10-22T04:29:16.052Z,11.41
2022-10-22T04:30:13.336Z,11.43
2022-10-22T04:31:13.299Z,11.33
2022-10-22T04:32:13.315Z,11.26
2022-10-22T04:33:13.308Z,11.29
2022-10-22T04:34:13.274Z,11.23
2022-10-22T04:35:13.286Z,11.29
2022-10-22T04:36:13.241Z,11.18
2022-10-22T04:37:13.233Z,11.19
2022-10-22T04:38:13.226Z,11.10
2022-10-22T04:39:13.217Z,11.12
2022-10-22T04:40:13.231Z,11.12
2022-10-22T04:41:13.181Z,11.04
2022-10-22T04:42:13.210Z,11.02
2022-10-22T04:43:13.167Z,11.11
2022-10-22T04:44:15.880Z,11.04
2022-10-22T04:45:13.183Z,10.99
2022-10-22T04:46:13.128Z,11.05
2022-10-22T04:47:13.207Z,11.02
2022-10-22T04:48:13.131Z,11.04
2022-10-22T04:49:13.093Z,10.99
2022-10-22T04:50:13.085Z,11.04
2022-10-22T04:51:13.100Z,11.02
2022-10-22T04:52:13.058Z,11.04
2022-10-22T04:53:13.046Z,10.99
2022-10-22T04:54:14.851Z,11.02
2022-10-22T04:55:13.178Z,11.02
2022-10-22T04:56:13.011Z,10.96
2022-10-22T04:57:13.020Z,10.92
2022-10-22T04:58:12.989Z,10.89
2022-10-22T04:59:12.980Z,10.96
2022-10-22T05:00:12.968Z,10.92
2022-10-22T05:01:12.990Z,10.84
2022-10-22T05:02:12.971Z,10.81
2022-10-22T05:03:12.945Z,10.81
2022-10-22T05:04:12.980Z,10.76
2022-10-22T05:05:12.914Z,10.75
2022-10-22T05:07:12.924Z,10.75
2022-10-22T05:08:12.871Z,10.76
2022-10-22T05:09:12.946Z,10.64
2022-10-22T05:10:12.849Z,10.67
2022-10-22T05:11:12.872Z,10.51
2022-10-22T05:12:12.832Z,10.54
2022-10-22T05:13:12.837Z,10.51
2022-10-22T05:14:12.812Z,10.53
2022-10-22T05:15:12.826Z,10.56
2022-10-22T05:16:12.819Z,10.51
2022-10-22T05:17:12.775Z,10.46
2022-10-22T05:18:12.760Z,10.46
2022-10-22T05:19:12.758Z,10.42
2022-10-22T05:20:12.758Z,10.48
2022-10-22T05:21:12.885Z,10.54
2022-10-22T05:22:12.717Z,10.44
2022-10-22T05:23:12.708Z,10.46
2022-10-22T05:24:12.698Z,10.53
2022-10-22T05:25:12.681Z,10.38
2022-10-22T05:26:12.688Z,10.38
2022-10-22T05:27:12.740Z,10.35
2022-10-22T05:28:12.643Z,10.33
2022-10-22T05:29:12.636Z,10.31
2022-10-22T05:30:12.625Z,10.38
2022-10-22T05:31:12.612Z,10.49
2022-10-22T05:32:12.604Z,10.46
2022-10-22T05:33:12.672Z,10.41
2022-10-22T05:34:12.580Z,10.49
2022-10-22T05:35:12.568Z,10.51
2022-10-22T05:36:12.604Z,10.41
2022-10-22T05:37:12.545Z,10.54
2022-10-22T05:38:12.534Z,10.44
2022-10-22T05:39:12.549Z,10.46
2022-10-22T05:40:26.373Z,10.54
2022-10-22T05:41:13.516Z,10.56
2022-10-22T05:42:12.490Z,10.64
2022-10-22T05:43:12.477Z,10.69
2022-10-22T05:44:12.464Z,10.78
2022-10-22T05:45:12.486Z,10.78
2022-10-22T05:46:12.455Z,10.86
2022-10-22T05:47:12.424Z,10.84
2022-10-22T05:48:12.420Z,10.89
2022-10-22T05:49:12.411Z,10.93
2022-10-22T05:50:12.397Z,10.96
2022-10-22T05:51:12.396Z,11.04
2022-10-22T05:52:12.413Z,11.05
2022-10-22T05:53:12.389Z,11.14
2022-10-22T05:54:12.350Z,11.12
2022-10-22T05:55:12.342Z,11.18
2022-10-22T05:56:12.335Z,11.25
2022-10-22T05:57:12.331Z,11.29
2022-10-22T05:58:12.301Z,11.27
2022-10-22T05:59:12.300Z,11.37
2022-10-22T06:00:14.268Z,11.36
2022-10-22T06:01:12.274Z,11.40
2022-10-22T06:02:12.313Z,11.43
2022-10-22T06:03:12.314Z,11.44
2022-10-22T06:04:12.242Z,11.40
2022-10-22T06:05:12.244Z,11.37
2022-10-22T06:06:12.216Z,11.40
2022-10-22T06:07:12.246Z,11.41
2022-10-22T06:08:15.607Z,11.37
2022-10-22T06:09:13.266Z,11.47
2022-10-22T06:10:12.196Z,11.36
2022-10-22T06:11:12.193Z,11.37
2022-10-22T06:12:12.150Z,11.40
2022-10-22T06:13:12.132Z,11.43
2022-10-22T06:14:12.130Z,11.45
2022-10-22T06:15:12.138Z,11.47
2022-10-22T06:16:12.805Z,11.43
2022-10-22T06:17:12.097Z,11.35
2022-10-22T06:18:12.075Z,11.41
2022-10-22T06:19:12.092Z,11.37
2022-10-22T06:20:12.052Z,11.43
2022-10-22T06:21:12.077Z,11.44
2022-10-22T06:22:12.031Z,11.37
2022-10-22T06:23:12.053Z,11.43
2022-10-22T06:24:12.064Z,11.37
2022-10-22T06:25:12.027Z,11.33
2022-10-22T06:26:11.984Z,11.36
2022-10-22T06:27:11.983Z,11.43
2022-10-22T06:28:11.992Z,11.45
2022-10-22T06:29:11.949Z,11.40
2022-10-22T06:30:11.945Z,11.45
2022-10-22T06:31:11.929Z,11.40
2022-10-22T06:32:11.928Z,11.36
2022-10-22T06:33:11.921Z,11.44
2022-10-22T06:34:11.914Z,11.35
2022-10-22T06:35:11.883Z,11.40
2022-10-22T06:36:11.874Z,11.45
2022-10-22T06:37:11.862Z,11.41
2022-10-22T06:38:11.873Z,11.36
2022-10-22T06:39:11.860Z,11.40
2022-10-22T06:40:11.848Z,11.40
2022-10-22T06:41:11.819Z,11.41
2022-10-22T06:42:11.807Z,11.52
2022-10-22T06:43:11.789Z,11.37
2022-10-22T06:44:11.783Z,11.51
2022-10-22T06:45:11.786Z,11.48
2022-10-22T06:46:14.777Z,11.51
2022-10-22T06:47:12.751Z,11.65
2022-10-22T06:48:11.754Z,11.54
2022-10-22T06:49:11.721Z,11.66
2022-10-22T06:50:11.755Z,11.63
2022-10-22T06:51:11.721Z,11.81
2022-10-22T06:52:11.695Z,11.83
2022-10-22T06:53:11.730Z,11.91
2022-10-22T06:54:11.665Z,11.88
2022-10-22T06:55:11.660Z,11.99
2022-10-22T06:56:11.666Z,12.06
2022-10-22T06:57:11.648Z,12.00
2022-10-22T06:58:11.642Z,12.07
2022-10-22T06:59:11.615Z,12.13
2022-10-22T07:00:11.604Z,12.18
2022-10-22T07:01:11.718Z,12.24
2022-10-22T07:02:11.577Z,12.24
2022-10-22T07:03:11.605Z,12.32
2022-10-22T07:04:11.551Z,12.37
2022-10-22T07:05:11.545Z,12.54
2022-10-22T07:06:11.532Z,12.62
2022-10-22T07:07:11.520Z,12.57
2022-10-22T07:08:11.513Z,12.68
2022-10-22T07:09:11.698Z,12.75
2022-10-22T07:10:11.507Z,12.85
2022-10-22T07:11:11.476Z,12.78
2022-10-22T07:12:11.486Z,12.90
2022-10-22T07:13:11.456Z,12.91
2022-10-22T07:14:11.442Z,12.97
2022-10-22T07:15:11.462Z,13.00
2022-10-22T07:16:11.415Z,13.05
2022-10-22T07:17:11.408Z,13.12
2022-10-22T07:18:11.415Z,13.13
2022-10-22T07:19:11.393Z,13.28
2022-10-22T07:20:11.366Z,13.30
2022-10-22T07:21:11.399Z,13.47
2022-10-22T07:22:11.351Z,13.53
2022-10-22T07:23:11.335Z,13.53
2022-10-22T07:24:11.346Z,13.59
2022-10-22T07:25:11.312Z,13.74
2022-10-22T07:26:11.325Z,13.75
2022-10-22T07:27:11.898Z,13.75
2022-10-22T07:28:11.319Z,13.79
2022-10-22T07:29:11.270Z,13.83
2022-10-22T07:30:11.254Z,13.89
2022-10-22T07:31:11.244Z,13.83
2022-10-22T07:32:11.240Z,13.86
2022-10-22T07:33:11.254Z,13.87
2022-10-22T07:34:11.318Z,14.05
2022-10-22T07:35:11.202Z,14.07
2022-10-22T07:36:11.191Z,14.08
2022-10-22T07:37:11.179Z,14.18
2022-10-22T07:38:11.188Z,14.29
2022-10-22T07:39:11.172Z,14.28
2022-10-22T07:40:11.141Z,14.32
2022-10-22T07:41:11.249Z,14.37
2022-10-22T07:42:11.121Z,14.48
2022-10-22T07:43:11.135Z,14.48
2022-10-22T07:44:11.117Z,14.59
2022-10-22T07:45:11.098Z,14.58
2022-10-22T07:46:11.094Z,14.58
2022-10-22T07:47:11.059Z,14.72
2022-10-22T07:48:11.147Z,14.84
2022-10-22T07:49:11.034Z,14.81
2022-10-22T07:50:11.032Z,14.85
2022-10-22T07:51:11.125Z,14.89
2022-10-22T07:52:11.008Z,14.92
2022-10-22T07:53:11.003Z,14.96
2022-10-22T07:54:10.998Z,15.11
2022-10-22T07:55:10.974Z,15.19
2022-10-22T07:56:10.956Z,15.28
2022-10-22T07:57:10.979Z,15.35
2022-10-22T07:58:10.934Z,15.52
2022-10-22T07:59:10.930Z,15.49
2022-10-22T08:00:10.940Z,15.52
2022-10-22T08:01:10.981Z,15.55
2022-10-22T08:02:10.886Z,15.72
2022-10-22T08:03:10.916Z,15.79
2022-10-22T08:04:10.866Z,15.84
2022-10-22T08:05:10.859Z,15.90
2022-10-22T08:06:10.844Z,15.94
2022-10-22T08:07:10.832Z,16.08
2022-10-22T08:08:10.824Z,16.12
2022-10-22T08:09:10.971Z,16.21
2022-10-22T08:10:10.797Z,16.36
2022-10-22T08:11:10.887Z,16.46
2022-10-22T08:12:10.784Z,16.54
2022-10-22T08:13:10.766Z,16.75
2022-10-22T08:14:10.761Z,16.66
2022-10-22T08:15:10.868Z,16.81
2022-10-22T08:16:10.760Z,16.79
2022-10-22T08:17:10.759Z,16.93
2022-10-22T08:18:10.703Z,17.01
2022-10-22T08:19:10.699Z,17.05
2022-10-22T08:20:10.713Z,17.15
2022-10-22T08:21:10.709Z,17.22
2022-10-22T08:22:10.661Z,17.19
2022-10-22T08:23:10.655Z,17.20
2022-10-22T08:24:10.651Z,17.20
2022-10-22T08:25:10.655Z,17.22
2022-10-22T08:26:10.617Z,17.23
2022-10-22T08:27:10.628Z,17.36
2022-10-22T08:28:10.770Z,17.41
2022-10-22T08:29:10.580Z,17.44
2022-10-22T08:30:10.569Z,17.49
2022-10-22T08:31:10.559Z,17.39
2022-10-22T08:32:10.571Z,17.44
2022-10-22T08:33:10.597Z,17.56
2022-10-22T08:34:10.524Z,17.60
2022-10-22T08:35:12.985Z,17.51
2022-10-22T08:36:10.541Z,17.48
2022-10-22T08:37:10.495Z,17.63
2022-10-22T08:38:10.474Z,17.60
2022-10-22T08:39:10.502Z,17.72
2022-10-22T08:40:10.455Z,17.72
2022-10-22T08:41:10.470Z,17.74
2022-10-22T08:42:10.436Z,17.78
2022-10-22T08:43:10.419Z,17.86
2022-10-22T08:44:10.410Z,17.83
2022-10-22T08:45:10.437Z,17.95
2022-10-22T08:46:10.388Z,17.89
2022-10-22T08:47:10.379Z,17.97
2022-10-22T08:48:10.418Z,18.00
2022-10-22T08:49:10.360Z,18.03
2022-10-22T08:50:10.359Z,18.05
2022-10-22T08:51:10.365Z,18.13
2022-10-22T08:52:10.337Z,18.15
2022-10-22T08:53:10.309Z,18.22
2022-10-22T08:54:10.299Z,18.22
2022-10-22T08:55:10.285Z,18.26
2022-10-22T08:56:10.285Z,18.33
2022-10-22T08:57:10.294Z,18.35
2022-10-22T08:58:10.269Z,18.41
2022-10-22T08:59:10.239Z,18.41
2022-10-22T09:00:10.225Z,18.40
2022-10-22T09:01:10.218Z,18.55
2022-10-22T09:02:10.203Z,18.50
2022-10-22T09:03:10.210Z,18.47
2022-10-22T09:04:10.203Z,18.53
2022-10-22T09:05:12.277Z,18.52
2022-10-22T09:06:10.160Z,18.53
2022-10-22T09:07:10.146Z,18.43
2022-10-22T09:08:10.172Z,18.53
2022-10-22T09:09:10.243Z,18.59
2022-10-22T09:10:10.116Z,18.58
2022-10-22T09:11:10.096Z,18.59
2022-10-22T09:12:10.091Z,18.60
2022-10-22T09:13:10.085Z,18.65
2022-10-22T09:14:10.112Z,18.65
2022-10-22T09:15:10.098Z,18.68
2022-10-22T09:16:10.040Z,18.71
2022-10-22T09:17:10.034Z,18.77
2022-10-22T09:18:10.027Z,18.83
2022-10-22T09:19:10.008Z,18.92
2022-10-22T09:20:10.124Z,18.92
2022-10-22T09:21:10.002Z,18.95
2022-10-22T09:22:09.974Z,18.96
2022-10-22T09:23:09.974Z,19.07
2022-10-22T09:24:09.948Z,19.14
2022-10-22T09:25:09.944Z,19.07
2022-10-22T09:26:09.933Z,19.07
2022-10-22T09:27:09.934Z,19.02
2022-10-22T09:28:09.913Z,19.02
2022-10-22T09:29:09.960Z,18.95
2022-10-22T09:30:09.886Z,18.92
2022-10-22T09:31:09.878Z,18.80
2022-10-22T09:32:09.868Z,18.86
2022-10-22T09:33:09.866Z,18.89
2022-10-22T09:34:09.843Z,18.81
2022-10-22T09:35:09.830Z,18.90
2022-10-22T09:36:09.841Z,18.80
2022-10-22T09:37:09.807Z,18.80
2022-10-22T09:38:09.935Z,18.86
2022-10-22T09:39:09.857Z,18.96
2022-10-22T09:40:09.775Z,19.00
2022-10-22T09:41:09.766Z,19.16
2022-10-22T09:42:09.750Z,19.24
2022-10-22T09:43:09.765Z,19.33
2022-10-22T09:44:09.732Z,19.37
2022-10-22T09:45:09.744Z,19.40
2022-10-22T09:46:09.708Z,19.48
2022-10-22T09:47:09.691Z,19.48
2022-10-22T09:48:09.678Z,19.62
2022-10-22T09:49:09.673Z,19.79
2022-10-22T09:50:09.656Z,19.86
2022-10-22T09:51:09.750Z,19.88
2022-10-22T09:52:09.662Z,19.94
2022-10-22T09:53:09.647Z,20.11
2022-10-22T09:54:09.617Z,20.16
2022-10-22T09:55:09.603Z,20.24
2022-10-22T09:56:09.667Z,20.25
2022-10-22T09:57:09.606Z,20.34
2022-10-22T09:58:09.569Z,20.50
2022-10-22T09:59:09.554Z,20.48
2022-10-22T10:00:09.547Z,20.59
2022-10-22T10:01:09.533Z,20.52
2022-10-22T10:02:19.742Z,20.59
2022-10-22T10:03:10.590Z,20.62
2022-10-22T10:04:10.109Z,20.65
2022-10-22T10:05:09.491Z,20.62
2022-10-22T10:06:09.478Z,20.66
2022-10-22T10:07:09.461Z,20.74
2022-10-22T10:08:09.528Z,20.70
2022-10-22T10:09:09.520Z,20.77
2022-10-22T10:10:09.429Z,20.75
2022-10-22T10:11:09.442Z,20.69
2022-10-22T10:12:09.407Z,20.66
2022-10-22T10:13:09.395Z,20.65
2022-10-22T10:14:09.386Z,20.67
2022-10-22T10:15:09.400Z,20.58
2022-10-22T10:16:10.332Z,20.51
2022-10-22T10:17:09.353Z,20.55
2022-10-22T10:18:09.338Z,20.55
2022-10-22T10:19:09.327Z,20.48
2022-10-22T10:20:09.316Z,20.44
2022-10-22T10:21:09.385Z,20.50
2022-10-22T10:22:09.296Z,20.40
2022-10-22T10:23:09.330Z,20.36
2022-10-22T10:24:09.299Z,20.22
2022-10-22T10:25:09.285Z,20.13
2022-10-22T10:26:09.245Z,20.10
2022-10-22T10:27:09.249Z,20.11
2022-10-22T10:28:09.257Z,20.02
2022-10-22T10:29:09.216Z,19.88
2022-10-22T10:30:09.209Z,19.92
2022-10-22T10:31:09.191Z,19.85
2022-10-22T10:32:09.176Z,19.76
2022-10-22T10:33:09.218Z,19.76
2022-10-22T10:34:09.156Z,19.66
2022-10-22T10:35:09.147Z,19.64
2022-10-22T10:36:09.134Z,19.55
2022-10-22T10:37:09.124Z,19.47
2022-10-22T10:38:09.147Z,19.40
2022-10-22T10:39:09.165Z,19.40
2022-10-22T10:40:09.117Z,19.39
2022-10-22T10:41:09.083Z,19.39
2022-10-22T10:42:09.063Z,19.27
2022-10-22T10:43:09.075Z,19.27
2022-10-22T10:44:09.043Z,19.18
2022-10-22T10:45:09.114Z,19.15
2022-10-22T10:46:09.045Z,19.16
2022-10-22T10:47:09.007Z,19.00
2022-10-22T10:48:09.001Z,19.15
2022-10-22T10:49:09.019Z,19.04
2022-10-22T10:50:08.979Z,19.12
2022-10-22T10:51:09.011Z,19.18
2022-10-22T10:52:08.956Z,19.14
2022-10-22T10:53:08.942Z,19.24
2022-10-22T10:54:08.941Z,19.37
2022-10-22T10:55:08.920Z,19.39
2022-10-22T10:56:08.960Z,19.47
2022-10-22T10:57:08.913Z,19.40
2022-10-22T10:58:08.885Z,19.51
2022-10-22T10:59:08.881Z,19.45
2022-10-22T11:00:08.865Z,19.54
2022-10-22T11:01:08.851Z,19.55
2022-10-22T11:02:08.850Z,19.51
2022-10-22T11:03:08.845Z,19.63
2022-10-22T11:04:08.824Z,19.58
2022-10-22T11:05:08.809Z,19.70
2022-10-22T11:06:08.795Z,19.74
2022-10-22T11:07:11.468Z,19.74
2022-10-22T11:08:09.803Z,19.82
2022-10-22T11:09:08.812Z,19.81
2022-10-22T11:10:08.751Z,19.79
2022-10-22T11:11:08.831Z,19.79
2022-10-22T11:12:08.783Z,19.76
2022-10-22T11:13:08.747Z,19.73
2022-10-22T11:14:08.760Z,19.77
2022-10-22T11:15:08.691Z,19.70
2022-10-22T11:16:08.700Z,19.74
2022-10-22T11:17:08.669Z,19.71
2022-10-22T11:18:08.665Z,19.71
2022-10-22T11:19:08.645Z,19.67
2022-10-22T11:20:08.674Z,19.63
2022-10-22T11:21:08.625Z,19.71
2022-10-22T11:22:08.614Z,19.74
2022-10-22T11:23:22.445Z,19.66
2022-10-22T11:24:09.588Z,19.69
2022-10-22T11:25:08.585Z,19.69
2022-10-22T11:26:08.610Z,19.71
2022-10-22T11:27:08.579Z,19.59
2022-10-22T11:28:11.252Z,19.69
2022-10-22T11:29:08.534Z,19.69
2022-10-22T11:30:08.529Z,19.67
2022-10-22T11:31:08.538Z,19.66
2022-10-22T11:32:08.582Z,19.69
2022-10-22T11:33:08.549Z,19.64
2022-10-22T11:34:31.891Z,19.63
2022-10-22T11:35:09.470Z,19.54
2022-10-22T11:36:08.455Z,19.59
2022-10-22T11:37:08.444Z,19.58
2022-10-22T11:38:08.472Z,19.55
2022-10-22T11:39:08.418Z,19.54
2022-10-22T11:40:08.420Z,19.51
2022-10-22T11:41:08.435Z,19.44
2022-10-22T11:42:08.394Z,19.44
2022-10-22T11:43:08.376Z,19.40
2022-10-22T11:44:08.408Z,19.34
2022-10-22T11:45:08.361Z,19.41
2022-10-22T11:46:08.348Z,19.39
2022-10-22T11:47:08.331Z,19.45
2022-10-22T11:48:08.322Z,19.36
2022-10-22T11:49:08.315Z,19.39
2022-10-22T11:50:08.469Z,19.39
2022-10-22T11:51:08.292Z,19.39
2022-10-22T11:52:08.273Z,19.36
2022-10-22T11:53:08.335Z,19.44
2022-10-22T11:54:08.278Z,19.48
2022-10-22T11:55:08.264Z,19.54
2022-10-22T11:56:08.269Z,19.52
2022-10-22T11:57:08.227Z,19.39
2022-10-22T11:58:08.206Z,19.40
2022-10-22T11:59:08.200Z,19.44
2022-10-22T12:00:08.207Z,19.39
2022-10-22T12:01:08.181Z,19.49
2022-10-22T12:02:08.203Z,19.44
2022-10-22T12:03:08.151Z,19.34
2022-10-22T12:04:08.198Z,19.33
2022-10-22T12:05:08.125Z,19.40
2022-10-22T12:06:08.119Z,19.40
2022-10-22T12:07:08.118Z,19.39
2022-10-22T12:08:11.167Z,19.49
2022-10-22T12:09:09.179Z,19.37
2022-10-22T12:10:08.282Z,19.40
2022-10-22T12:11:08.126Z,19.44
2022-10-22T12:12:08.067Z,19.40
2022-10-22T12:13:08.046Z,19.39
2022-10-22T12:14:08.060Z,19.37
2022-10-22T12:15:08.019Z,19.36
2022-10-22T12:16:11.575Z,19.31
2022-10-22T12:17:08.993Z,19.31
2022-10-22T12:18:08.042Z,19.31
2022-10-22T12:19:07.967Z,19.33
2022-10-22T12:20:08.057Z,19.31
2022-10-22T12:21:08.029Z,19.18
2022-10-22T12:22:07.940Z,19.19
2022-10-22T12:23:07.931Z,19.15
2022-10-22T12:24:07.912Z,19.02
2022-10-22T12:25:07.909Z,18.99
2022-10-22T12:26:07.921Z,19.08
2022-10-22T12:27:09.224Z,19.02
2022-10-22T12:28:07.880Z,18.86
2022-10-22T12:29:07.874Z,18.89
2022-10-22T12:30:07.915Z,18.88
2022-10-22T12:31:07.837Z,18.84
2022-10-22T12:32:07.932Z,18.77
2022-10-22T12:33:07.813Z,18.71
2022-10-22T12:34:07.798Z,18.75
2022-10-22T12:35:07.790Z,18.74
2022-10-22T12:36:07.782Z,18.65
2022-10-22T12:37:07.773Z,18.62
2022-10-22T12:38:07.770Z,18.59
2022-10-22T12:39:07.749Z,18.56
2022-10-22T12:40:07.736Z,18.52
2022-10-22T12:41:07.720Z,18.45
2022-10-22T12:42:07.715Z,18.40
2022-10-22T12:43:07.699Z,18.35
2022-10-22T12:44:07.711Z,18.41
2022-10-22T12:45:07.675Z,18.19
2022-10-22T12:46:07.667Z,18.19
2022-10-22T12:47:07.654Z,18.22
2022-10-22T12:48:07.663Z,18.25
2022-10-22T12:49:07.636Z,18.19
2022-10-22T12:50:07.629Z,18.13
2022-10-22T12:51:07.618Z,18.16
2022-10-22T12:52:09.766Z,18.04
2022-10-22T12:53:07.581Z,17.95
2022-10-22T12:54:07.577Z,17.98